createdAt,value
2023-02-11T00:02:11.885Z,22.20
2023-02-11T00:04:44.593Z,24.65
2023-02-11T00:07:16.485Z,22.27
2023-02-11T00:09:49.480Z,22.55
2023-02-11T00:12:21.691Z,21.65
2023-02-11T00:14:54.400Z,20.27
2023-02-11T00:17:26.350Z,19.70
2023-02-11T00:19:59.447Z,19.20
2023-02-11T00:22:31.389Z,19.92
2023-02-11T00:25:05.129Z,20.23
2023-02-11T00:27:38.744Z,19.67
2023-02-11T00:30:11.770Z,21.38
2023-02-11T00:32:45.110Z,21.47
2023-02-11T00:35:17.210Z,20.92
2023-02-11T00:37:49.934Z,22.42
2023-02-11T00:40:22.568Z,18.67
2023-02-11T00:42:54.492Z,21.08
2023-02-11T00:45:31.065Z,22.37
2023-02-11T00:48:03.796Z,21.70
2023-02-11T00:50:35.747Z,20.98
2023-02-11T00:53:11.453Z,20.13
2023-02-11T00:55:43.999Z,17.75
2023-02-11T00:58:16.697Z,16.83
2023-02-11T01:00:49.361Z,19.92
2023-02-11T01:03:22.359Z,18.40
2023-02-11T01:05:54.987Z,19.35
2023-02-11T01:08:27.876Z,18.02
2023-02-11T01:11:08.225Z,19.10
2023-02-11T01:13:40.539Z,18.77
2023-02-11T01:16:14.108Z,19.30
2023-02-11T01:18:47.145Z,18.98
2023-02-11T01:21:23.496Z,17.83
2023-02-11T01:23:56.753Z,18.70
2023-02-11T01:26:29.154Z,19.33
2023-02-11T01:29:03.955Z,20.48
2023-02-11T01:31:36.795Z,19.42
2023-02-11T01:34:09.290Z,18.70
2023-02-11T01:36:42.946Z,18.77
2023-02-11T01:39:15.658Z,21.52
2023-02-11T01:42:09.996Z,20.08
2023-02-11T01:44:42.339Z,20.17
2023-02-11T01:47:15.118Z,18.33
2023-02-11T01:49:57.413Z,18.53
2023-02-11T01:52:36.107Z,19.15
2023-02-11T01:55:31.414Z,20.05
2023-02-11T01:58:05.859Z,19.13
2023-02-11T02:00:40.341Z,17.60
2023-02-11T02:03:22.881Z,17.50
2023-02-11T02:06:16.905Z,17.52
2023-02-11T02:09:04.706Z,16.42
2023-02-11T02:11:36.636Z,17.52
2023-02-11T02:14:10.171Z,18.73
2023-02-11T02:16:42.599Z,18.03
2023-02-11T02:19:46.140Z,18.65
2023-02-11T02:23:38.477Z,19.48
2023-02-11T02:26:18.058Z,16.10
2023-02-11T02:33:22.809Z,17.13
2023-02-11T02:35:55.820Z,16.38
2023-02-11T02:39:06.777Z,16.45
2023-02-11T02:41:39.972Z,14.57
2023-02-11T02:44:12.150Z,14.30
2023-02-11T02:46:44.920Z,15.77
2023-02-11T02:49:17.717Z,15.48
2023-02-11T02:52:08.488Z,16.88
2023-02-11T02:55:09.640Z,17.30
2023-02-11T02:58:25.094Z,15.27
2023-02-11T03:01:45.754Z,14.87
2023-02-11T03:04:53.460Z,14.90
2023-02-11T03:07:42.197Z,13.75
2023-02-11T03:10:21.608Z,14.98
2023-02-11T03:12:56.369Z,16.55
2023-02-11T03:15:32.660Z,13.63
2023-02-11T03:18:10.319Z,13.98
2023-02-11T03:20:47.493Z,14.13
2023-02-11T03:23:29.013Z,11.43
2023-02-11T03:26:41.902Z,11.60
2023-02-11T03:29:36.230Z,12.10
2023-02-11T03:32:34.969Z,12.27
2023-02-11T03:35:16.142Z,12.60
2023-02-11T03:38:07.080Z,12.57
2023-02-11T03:40:42.863Z,13.80
2023-02-11T03:43:30.334Z,13.67
2023-02-11T03:46:04.292Z,13.18
2023-02-11T03:48:44.699Z,13.70
2023-02-11T03:51:18.034Z,13.27
2023-02-11T03:53:53.100Z,14.55
2023-02-11T03:56:31.520Z,13.93
2023-02-11T03:59:21.824Z,13.65
2023-02-11T04:04:48.338Z,13.68
2023-02-11T04:07:20.736Z,13.40
2023-02-11T04:09:53.396Z,12.63
2023-02-11T04:12:26.073Z,12.05
2023-02-11T04:14:57.976Z,13.05
2023-02-11T04:17:30.830Z,12.02
2023-02-11T04:20:02.820Z,13.10
2023-02-11T04:22:57.321Z,12.77
2023-02-11T04:25:52.071Z,12.30
2023-02-11T04:28:24.559Z,13.40
2023-02-11T04:30:57.508Z,11.80
2023-02-11T04:33:30.232Z,13.82
2023-02-11T04:36:02.121Z,13.60
2023-02-11T04:38:35.492Z,13.52
2023-02-11T04:41:07.449Z,12.68
2023-02-11T04:43:40.330Z,10.90
2023-02-11T04:46:12.892Z,11.50
2023-02-11T04:48:45.321Z,10.30
2023-02-11T04:51:17.357Z,10.50
2023-02-11T04:53:50.126Z,10.63
2023-02-11T04:56:23.494Z,11.48
2023-02-11T04:58:55.874Z,11.93
2023-02-11T05:01:28.330Z,11.23
2023-02-11T05:04:00.456Z,11.60
2023-02-11T05:06:33.231Z,12.30
2023-02-11T05:09:05.209Z,12.20
2023-02-11T05:11:39.818Z,11.60
2023-02-11T05:14:11.706Z,12.57
2023-02-11T05:16:44.502Z,12.05
2023-02-11T05:19:17.425Z,12.13
2023-02-11T05:22:01.624Z,12.95
2023-02-11T05:24:35.363Z,12.07
2023-02-11T05:27:08.570Z,11.73
2023-02-11T05:29:40.999Z,11.18
2023-02-11T05:32:13.367Z,11.48
2023-02-11T05:34:45.335Z,10.63
2023-02-11T05:37:20.819Z,11.70
2023-02-11T05:39:53.205Z,10.90
2023-02-11T05:42:26.382Z,10.77
2023-02-11T05:44:58.383Z,10.70
2023-02-11T05:47:31.245Z,11.18
2023-02-11T05:50:06.950Z,10.70
2023-02-11T05:52:39.312Z,11.37
2023-02-11T05:55:12.153Z,10.90
2023-02-11T05:57:45.022Z,12.32
2023-02-11T06:00:18.274Z,11.48
2023-02-11T06:03:12.546Z,12.20
2023-02-11T06:08:39.694Z,10.35
2023-02-11T06:14:04.776Z,9.98
2023-02-11T06:16:37.576Z,10.05
2023-02-11T06:19:10.010Z,9.80
2023-02-11T06:21:44.294Z,9.82
2023-02-11T06:24:24.659Z,9.30
2023-02-11T06:27:09.251Z,8.13
2023-02-11T06:29:42.056Z,7.97
2023-02-11T06:32:36.886Z,8.23
2023-02-11T06:35:09.488Z,8.75
2023-02-11T06:37:43.520Z,9.23
2023-02-11T06:40:16.638Z,9.90
2023-02-11T06:42:48.618Z,8.27
2023-02-11T06:45:21.227Z,9.20
2023-02-11T06:47:53.371Z,8.90
2023-02-11T06:50:28.692Z,9.63
2023-02-11T06:53:01.275Z,21.45
2023-02-11T06:55:35.925Z,9.65
2023-02-11T06:58:08.594Z,9.17
2023-02-11T07:00:41.672Z,9.98
2023-02-11T07:03:13.737Z,9.63
2023-02-11T07:05:46.960Z,9.20
2023-02-11T07:08:38.533Z,9.80
2023-02-11T07:11:24.663Z,9.20
2023-02-11T07:14:02.229Z,9.82
2023-02-11T07:16:35.869Z,10.13
2023-02-11T07:19:08.609Z,8.95
2023-02-11T07:21:40.934Z,9.82
2023-02-11T07:24:13.876Z,10.53
2023-02-11T07:26:47.451Z,10.02
2023-02-11T07:29:19.873Z,11.02
2023-02-11T07:31:52.248Z,12.32
2023-02-11T07:34:24.720Z,13.90
2023-02-11T07:36:59.181Z,13.77
2023-02-11T07:39:31.509Z,14.18
2023-02-11T07:42:04.716Z,16.42
2023-02-11T07:47:30.186Z,17.13
2023-02-11T07:50:03.048Z,14.67
2023-02-11T07:52:38.877Z,15.40
2023-02-11T07:55:11.554Z,15.30
2023-02-11T07:57:44.374Z,14.25
2023-02-11T08:00:19.383Z,15.10
2023-02-11T08:02:54.479Z,14.60
2023-02-11T08:05:26.413Z,15.32
2023-02-11T08:07:59.170Z,13.70
2023-02-11T08:10:32.880Z,13.68
2023-02-11T08:13:05.202Z,15.57
2023-02-11T08:15:37.538Z,14.07
2023-02-11T08:18:09.414Z,14.57
2023-02-11T08:20:42.501Z,15.13
2023-02-11T08:23:14.430Z,14.50
2023-02-11T08:25:47.207Z,14.95
2023-02-11T08:28:19.594Z,15.33
2023-02-11T08:30:51.893Z,16.73
2023-02-11T08:33:24.899Z,17.67
2023-02-11T08:35:57.605Z,16.55
2023-02-11T08:38:30.875Z,19.25
2023-02-11T08:41:03.648Z,16.73
2023-02-11T08:43:37.326Z,15.98
2023-02-11T08:46:13.908Z,16.60
2023-02-11T08:48:47.499Z,16.10
2023-02-11T08:51:31.934Z,15.05
2023-02-11T08:54:04.366Z,14.13
2023-02-11T08:56:39.311Z,14.20
2023-02-11T08:59:15.084Z,12.77
2023-02-11T09:01:48.090Z,14.63
2023-02-11T09:04:20.315Z,14.25
2023-02-11T09:06:53.524Z,14.13
2023-02-11T09:09:28.760Z,15.02
2023-02-11T09:12:01.450Z,14.40
2023-02-11T09:14:35.441Z,14.52
2023-02-11T09:17:07.440Z,15.18
2023-02-11T09:22:33.633Z,15.85
2023-02-11T09:25:07.216Z,15.20
2023-02-11T09:27:40.192Z,14.68
2023-02-11T09:30:12.916Z,15.95
2023-02-11T09:32:45.760Z,17.10
2023-02-11T09:35:18.314Z,18.30
2023-02-11T09:37:51.721Z,18.85
2023-02-11T09:40:24.240Z,21.40
2023-02-11T09:43:44.313Z,22.23
2023-02-11T09:46:18.167Z,21.00
2023-02-11T09:48:57.914Z,21.58
2023-02-11T09:51:36.094Z,22.48
2023-02-11T09:54:20.160Z,18.58
2023-02-11T09:56:52.135Z,18.83
2023-02-11T09:59:24.500Z,18.57
2023-02-11T10:02:05.157Z,17.40
2023-02-11T10:05:12.779Z,17.90
2023-02-11T10:08:22.757Z,18.38
2023-02-11T10:11:05.885Z,19.58
2023-02-11T10:13:53.279Z,20.07
2023-02-11T10:17:14.689Z,19.13
2023-02-11T10:19:57.734Z,18.88
2023-02-11T10:22:50.398Z,17.95
2023-02-11T10:25:54.488Z,18.27
2023-02-11T10:28:33.275Z,18.37
2023-02-11T10:31:15.893Z,19.23
2023-02-11T10:34:13.079Z,18.60
2023-02-11T10:36:45.777Z,17.95
2023-02-11T10:39:24.897Z,18.90
2023-02-11T10:42:06.721Z,18.07
2023-02-11T10:44:46.663Z,18.20
2023-02-11T10:47:24.976Z,18.17
2023-02-11T10:50:03.809Z,18.25
2023-02-11T10:52:36.186Z,18.30
2023-02-11T10:55:22.591Z,19.43
2023-02-11T10:58:01.509Z,22.45
2023-02-11T11:00:37.339Z,21.95
2023-02-11T11:03:23.392Z,20.38
2023-02-11T11:06:05.644Z,22.38
2023-02-11T11:08:44.274Z,21.87
2023-02-11T11:11:26.588Z,22.27
2023-02-11T11:14:03.747Z,22.15
2023-02-11T11:16:37.723Z,21.40
2023-02-11T11:19:09.969Z,22.88
2023-02-11T11:21:56.432Z,22.13
2023-02-11T11:24:45.005Z,23.70
2023-02-11T11:27:25.144Z,24.98
2023-02-11T11:29:57.806Z,22.17
2023-02-11T11:32:33.666Z,23.17
2023-02-11T11:35:25.470Z,22.80
2023-02-11T11:38:02.328Z,22.65
2023-02-11T11:40:35.994Z,21.15
2023-02-11T11:43:14.562Z,22.73
2023-02-11T11:45:56.364Z,21.05
2023-02-11T11:48:47.526Z,22.37
2023-02-11T11:51:19.902Z,23.83
2023-02-11T11:54:18.395Z,23.33
2023-02-11T11:57:18.965Z,21.35
2023-02-11T11:59:51.300Z,21.08
2023-02-11T12:03:11.363Z,21.07
2023-02-11T12:06:09.648Z,22.42
2023-02-11T12:09:25.875Z,22.80
2023-02-11T12:12:27.540Z,21.83
2023-02-11T12:15:20.503Z,22.75
2023-02-11T12:18:14.606Z,21.87
2023-02-11T12:21:13.288Z,21.77
2023-02-11T12:24:17.421Z,23.05
2023-02-11T12:27:36.651Z,23.02
2023-02-11T12:30:33.865Z,21.10
2023-02-11T12:33:36.160Z,22.33
2023-02-11T12:36:21.707Z,22.98
2023-02-11T12:39:37.424Z,25.00
2023-02-11T12:43:02.533Z,25.45
2023-02-11T12:45:59.164Z,22.83
2023-02-11T12:49:02.182Z,22.80
2023-02-11T12:52:18.874Z,23.05
2023-02-11T12:55:23.146Z,21.98
2023-02-11T12:57:59.081Z,23.48
2023-02-11T13:00:48.785Z,22.98
2023-02-11T13:03:47.099Z,22.27
2023-02-11T13:06:28.309Z,21.65
2023-02-11T13:09:05.057Z,21.95
2023-02-11T13:11:45.022Z,20.23
2023-02-11T13:14:32.718Z,20.23
2023-02-11T13:17:18.714Z,19.97
2023-02-11T13:20:01.608Z,19.63
2023-02-11T13:22:44.646Z,20.23
2023-02-11T13:25:23.436Z,19.48
2023-02-11T13:28:45.908Z,19.42
2023-02-11T13:31:20.319Z,19.13
2023-02-11T13:33:53.287Z,19.77
2023-02-11T13:36:28.696Z,21.33
2023-02-11T13:39:06.906Z,19.27
2023-02-11T13:41:41.324Z,20.83
2023-02-11T13:44:22.576Z,20.33
2023-02-11T13:47:03.269Z,19.30
2023-02-11T13:49:51.175Z,18.75
2023-02-11T13:52:31.216Z,19.70
2023-02-11T13:55:24.632Z,18.25
2023-02-11T13:58:08.802Z,17.90
2023-02-11T14:00:52.292Z,17.85
2023-02-11T14:03:52.606Z,17.50
2023-02-11T14:06:48.147Z,17.08
2023-02-11T14:09:23.436Z,17.75
2023-02-11T14:12:31.892Z,18.33
2023-02-11T14:15:07.943Z,16.20
2023-02-11T14:17:40.424Z,18.77
2023-02-11T14:20:39.786Z,16.25
2023-02-11T14:23:27.563Z,16.33
2023-02-11T14:26:21.505Z,15.60
2023-02-11T14:29:40.992Z,16.20
2023-02-11T14:32:53.119Z,15.35
2023-02-11T14:36:00.993Z,13.43
2023-02-11T14:39:09.989Z,11.13
2023-02-11T14:41:45.348Z,10.27
2023-02-11T14:44:28.311Z,11.60
2023-02-11T14:47:01.017Z,11.75
2023-02-11T14:49:39.854Z,11.10
2023-02-11T14:52:31.614Z,12.10
2023-02-11T14:55:18.847Z,12.60
2023-02-11T14:58:19.092Z,12.23
2023-02-11T15:01:01.427Z,11.70
2023-02-11T15:03:40.370Z,12.68
2023-02-11T15:06:25.482Z,11.65
2023-02-11T15:09:41.729Z,12.43
2023-02-11T15:12:26.821Z,12.38
2023-02-11T15:15:01.041Z,13.40
2023-02-11T15:17:33.106Z,12.10
2023-02-11T15:20:06.881Z,12.57
2023-02-11T15:22:39.356Z,12.40
2023-02-11T15:25:17.583Z,12.45
2023-02-11T15:27:53.934Z,12.38
2023-02-11T15:30:31.377Z,13.10
2023-02-11T15:33:06.781Z,13.27
2023-02-11T15:35:41.391Z,12.27
2023-02-11T15:38:14.215Z,12.88
2023-02-11T15:41:38.739Z,14.70
2023-02-11T15:44:32.329Z,13.23
2023-02-11T15:47:11.850Z,13.75
2023-02-11T15:49:45.837Z,13.13
2023-02-11T15:52:26.084Z,13.10
2023-02-11T15:55:01.668Z,12.65
2023-02-11T15:57:34.748Z,12.48
2023-02-11T16:00:08.188Z,14.27
2023-02-11T16:02:46.704Z,13.23
2023-02-11T16:05:37.137Z,13.80
2023-02-11T16:08:42.084Z,13.48
2023-02-11T16:11:35.122Z,13.63
2023-02-11T16:14:37.504Z,13.32
2023-02-11T16:17:12.537Z,12.13
2023-02-11T16:19:48.159Z,12.70
2023-02-11T16:22:26.287Z,12.60
2023-02-11T16:25:00.274Z,14.05
2023-02-11T16:27:42.088Z,14.35
2023-02-11T16:30:34.590Z,15.20
2023-02-11T16:33:06.585Z,14.85
2023-02-11T16:35:39.017Z,14.82
2023-02-11T16:38:10.910Z,14.82
2023-02-11T16:40:44.875Z,14.05
2023-02-11T16:43:20.663Z,15.57
2023-02-11T16:45:53.285Z,14.45
2023-02-11T16:48:25.551Z,14.30
2023-02-11T16:50:58.193Z,14.73
2023-02-11T16:53:30.662Z,14.45
2023-02-11T16:56:03.038Z,14.50
2023-02-11T16:58:35.044Z,14.85
2023-02-11T17:01:07.905Z,16.30
2023-02-11T17:03:40.755Z,14.52
2023-02-11T17:06:14.283Z,15.73
2023-02-11T17:08:46.288Z,14.80
2023-02-11T17:11:20.143Z,13.73
2023-02-11T17:13:52.468Z,15.18
2023-02-11T17:16:25.464Z,13.63
2023-02-11T17:18:57.413Z,13.88
2023-02-11T17:21:31.869Z,15.27
2023-02-11T17:24:04.385Z,15.98
2023-02-11T17:26:38.223Z,16.27
2023-02-11T17:29:16.671Z,15.15
2023-02-11T17:31:49.651Z,15.85
2023-02-11T17:34:22.921Z,15.97
2023-02-11T17:36:55.428Z,15.68
2023-02-11T17:39:27.935Z,15.30
2023-02-11T17:42:00.661Z,15.80
2023-02-11T17:44:34.006Z,17.60
2023-02-11T17:47:06.327Z,16.17
2023-02-11T17:49:39.029Z,16.42
2023-02-11T17:52:11.797Z,17.83
2023-02-11T17:54:44.213Z,15.30
2023-02-11T17:57:16.595Z,17.00
2023-02-11T17:59:48.573Z,16.37
2023-02-11T18:02:21.070Z,16.88
2023-02-11T18:04:55.433Z,16.40
2023-02-11T18:07:27.826Z,16.30
2023-02-11T18:09:59.776Z,16.75
2023-02-11T18:12:32.124Z,17.30
2023-02-11T18:15:04.507Z,17.83
2023-02-11T18:17:36.887Z,16.40
2023-02-11T18:20:09.896Z,16.85
2023-02-11T18:22:44.556Z,16.42
2023-02-11T18:25:17.414Z,16.33
2023-02-11T18:27:49.745Z,16.00
2023-02-11T18:30:22.367Z,15.98
2023-02-11T18:32:57.875Z,14.85
2023-02-11T18:35:29.853Z,14.73
2023-02-11T18:38:02.300Z,15.67
2023-02-11T18:40:34.666Z,15.10
2023-02-11T18:43:07.320Z,14.82
2023-02-11T18:45:44.270Z,15.55
2023-02-11T18:48:17.700Z,16.17
2023-02-11T18:50:50.114Z,15.30
2023-02-11T18:53:23.720Z,15.00
2023-02-11T18:55:56.134Z,15.18
2023-02-11T18:58:28.087Z,14.57
2023-02-11T19:01:00.575Z,16.23
2023-02-11T19:03:32.492Z,15.10
2023-02-11T19:06:05.361Z,15.38
2023-02-11T19:08:37.289Z,16.05
2023-02-11T19:11:10.146Z,13.93
2023-02-11T19:13:42.133Z,14.52
2023-02-11T19:16:17.007Z,15.13
2023-02-11T19:18:49.068Z,15.07
2023-02-11T19:21:21.578Z,14.30
2023-02-11T19:23:53.514Z,14.48
2023-02-11T19:26:26.825Z,15.93
2023-02-11T19:28:59.131Z,14.93
2023-02-11T19:31:33.945Z,13.77
2023-02-11T19:34:07.562Z,14.82
2023-02-11T19:36:40.728Z,14.70
2023-02-11T19:39:13.117Z,15.27
2023-02-11T19:41:45.708Z,15.00
2023-02-11T19:44:18.388Z,16.65
2023-02-11T19:46:53.008Z,16.58
2023-02-11T19:49:26.326Z,17.40
2023-02-11T19:51:59.068Z,17.55
2023-02-11T19:54:31.123Z,16.67
2023-02-11T19:57:03.545Z,17.70
2023-02-11T19:59:35.420Z,16.42
2023-02-11T20:02:08.341Z,15.52
2023-02-11T20:04:40.291Z,15.55
2023-02-11T20:07:12.804Z,15.47
2023-02-11T20:09:44.811Z,15.82
2023-02-11T20:12:17.949Z,16.63
2023-02-11T20:14:49.894Z,15.52
2023-02-11T20:17:22.410Z,15.73
2023-02-11T20:19:54.325Z,15.90
2023-02-11T20:22:26.768Z,15.48
2023-02-11T20:24:58.691Z,15.23
2023-02-11T20:27:32.393Z,15.18
2023-02-11T20:30:05.381Z,15.27
2023-02-11T20:32:38.856Z,15.00
2023-02-11T20:35:10.874Z,15.30
2023-02-11T20:37:44.296Z,15.07
2023-02-11T20:40:17.338Z,14.27
2023-02-11T20:42:49.958Z,13.82
2023-02-11T20:45:22.956Z,13.60
2023-02-11T20:47:55.420Z,15.07
2023-02-11T20:50:27.358Z,13.20
2023-02-11T20:52:59.819Z,14.68
2023-02-11T20:55:31.928Z,14.40
2023-02-11T20:58:05.786Z,14.93
2023-02-11T21:00:37.827Z,15.25
2023-02-11T21:03:10.640Z,13.93
2023-02-11T21:05:42.606Z,14.88
2023-02-11T21:08:14.989Z,14.15
2023-02-11T21:10:48.509Z,13.60
2023-02-11T21:13:20.975Z,13.40
2023-02-11T21:15:57.375Z,13.55
2023-02-11T21:18:30.166Z,13.88
2023-02-11T21:21:02.272Z,13.65
2023-02-11T21:23:35.977Z,14.20
2023-02-11T21:26:08.822Z,14.18
2023-02-11T21:28:41.503Z,13.65
2023-02-11T21:31:27.157Z,13.27
2023-02-11T21:33:59.856Z,14.13
2023-02-11T21:36:32.005Z,13.53
2023-02-11T21:39:05.872Z,13.80
2023-02-11T21:41:37.873Z,14.20
2023-02-11T21:44:10.098Z,12.88
2023-02-11T21:46:42.100Z,13.75
2023-02-11T21:49:14.625Z,14.57
2023-02-11T21:51:46.966Z,14.10
2023-02-11T21:54:20.343Z,14.45
2023-02-11T21:56:52.447Z,14.15
2023-02-11T21:59:24.823Z,14.88
2023-02-11T22:01:56.851Z,15.13
2023-02-11T22:04:29.290Z,14.52
2023-02-11T22:07:02.887Z,15.88
2023-02-11T22:09:35.252Z,15.38
2023-02-11T22:12:11.257Z,15.02
2023-02-11T22:14:43.892Z,14.27
2023-02-11T22:17:16.300Z,15.15
2023-02-11T22:19:49.058Z,15.18
2023-02-11T22:22:21.248Z,14.25
2023-02-11T22:24:54.336Z,14.25
2023-02-11T22:27:26.302Z,13.57
2023-02-11T22:29:58.728Z,14.43
2023-02-11T22:32:30.710Z,14.50
2023-02-11T22:35:03.187Z,14.25
2023-02-11T22:37:35.131Z,14.23
2023-02-11T22:40:08.483Z,14.43
2023-02-11T22:42:40.447Z,13.57
2023-02-11T22:45:13.971Z,14.02
2023-02-11T22:47:45.902Z,13.82
2023-02-11T22:50:19.836Z,15.05
2023-02-11T22:52:51.729Z,14.33
2023-02-11T22:55:24.085Z,15.13
2023-02-11T22:57:56.054Z,14.95
2023-02-11T23:00:32.204Z,13.82
2023-02-11T23:03:05.650Z,14.65
2023-02-11T23:05:42.705Z,14.63
2023-02-11T23:08:14.695Z,11.95
2023-02-11T23:10:47.266Z,11.48
2023-02-11T23:13:19.431Z,11.98
2023-02-11T23:15:51.801Z,14.07
2023-02-11T23:18:23.695Z,11.50
2023-02-11T23:20:56.453Z,14.50
2023-02-11T23:23:28.472Z,13.90
2023-02-11T23:26:01.433Z,13.07
2023-02-11T23:28:33.416Z,14.50
2023-02-11T23:31:38.114Z,14.27
2023-02-11T23:34:10.727Z,13.68
2023-02-11T23:36:44.480Z,12.73
2023-02-11T23:39:17.129Z,12.05
2023-02-11T23:41:52.720Z,12.52
2023-02-11T23:44:27.993Z,13.40
2023-02-11T23:47:00.358Z,12.88
2023-02-11T23:49:32.320Z,12.93
2023-02-11T23:52:04.708Z,12.80
2023-02-11T23:54:36.673Z,10.98
2023-02-11T23:57:09.058Z,11.50
2023-02-11T23:59:43.172Z,9.20
